Pagina principale
METAR-TAF:

METAR-TAF

Aeroporti :

Tongatapu, Tonga

latitudine: 21-14S, longitudine: 175-09W, altezza: 38 m

Osservazione

Il bollettino è stato emesso 43 minuti fa, alle 05:00 UTC
Vento 6 kt da est/sud-est
Temperature 23°C
Umidità 73%
Pressione 1018 hPa
Visibilità 10 km o più
Poco nuvoloso ad un'altezza di 2000 ft
Nuvoloso ad un'altezza di 28000 ft

METAR: NFTF 180500Z 12006KT 9999 FEW020 BKN280 23/18 Q1018

Ora: 18:43 (05:43 UTC)

Previsione

Il bollettino è stato emesso 17 minuti fa, alle 05:26 UTC
Previsione valida dal 18 alle 06 UTC al 19 alle 06 UTC
Vento 8 kt da est/sud-est
Visibilità 10 km o più
Nubi sparse ad un'altezza di 1700 ft

TAF: NFTF 180526Z 1806/1906 12008KT 9999 SCT017

Osservazioni e previsioni meteorologiche di più di 4000 aeroporti (messaggi METAR e TAF).

Le stazioni disponibili sono rappresentate dai dischi gialli e rossi sulla carta.

Puntare il mouse per vedere il nome della stazione.

Clicca sopra per visualizzare le osservazioni e previsioni meteorologiche.

Per cambiare la mappa : fare clic sui pulsanti verdi con una croce nera per ingrandire, il pulsante verde con un trattino per diminuire, o sulla freccia verde per le mappe adiacenti.


METAR-TAF: